sensor_id;sensor_type;location;lat;lon;timestamp;temperature;humidity
3678;DHT22;1855;50.934;6.958;2022-10-20T00:01:57;11.50;93.10
3678;DHT22;1855;50.934;6.958;2022-10-20T00:04:24;11.60;93.20
3678;DHT22;1855;50.934;6.958;2022-10-20T00:06:51;11.60;93.20
3678;DHT22;1855;50.934;6.958;2022-10-20T00:09:17;11.50;93.30
3678;DHT22;1855;50.934;6.958;2022-10-20T00:11:46;11.60;93.30
3678;DHT22;1855;50.934;6.958;2022-10-20T00:14:12;11.50;93.20
3678;DHT22;1855;50.934;6.958;2022-10-20T00:16:39;11.60;93.20
3678;DHT22;1855;50.934;6.958;2022-10-20T00:19:06;11.50;93.20
3678;DHT22;1855;50.934;6.958;2022-10-20T00:21:33;11.50;93.30
3678;DHT22;1855;50.934;6.958;2022-10-20T00:24:01;11.50;93.40
3678;DHT22;1855;50.934;6.958;2022-10-20T00:26:29;11.50;93.40
3678;DHT22;1855;50.934;6.958;2022-10-20T00:28:58;11.40;93.20
3678;DHT22;1855;50.934;6.958;2022-10-20T00:31:26;11.40;93.20
3678;DHT22;1855;50.934;6.958;2022-10-20T00:33:53;11.40;93.70
3678;DHT22;1855;50.934;6.958;2022-10-20T00:36:21;11.40;93.30
3678;DHT22;1855;50.934;6.958;2022-10-20T00:38:48;11.30;93.30
3678;DHT22;1855;50.934;6.958;2022-10-20T00:41:16;11.30;93.40
3678;DHT22;1855;50.934;6.958;2022-10-20T00:43:45;11.30;93.30
3678;DHT22;1855;50.934;6.958;2022-10-20T00:46:16;11.30;93.40
3678;DHT22;1855;50.934;6.958;2022-10-20T00:48:46;11.20;93.50
3678;DHT22;1855;50.934;6.958;2022-10-20T00:51:15;11.20;93.40
3678;DHT22;1855;50.934;6.958;2022-10-20T00:53:43;11.10;93.50
3678;DHT22;1855;50.934;6.958;2022-10-20T00:56:10;11.10;93.60
3678;DHT22;1855;50.934;6.958;2022-10-20T00:58:37;11.10;93.80
3678;DHT22;1855;50.934;6.958;2022-10-20T01:01:04;11.10;93.70
3678;DHT22;1855;50.934;6.958;2022-10-20T01:03:35;11.00;93.70
3678;DHT22;1855;50.934;6.958;2022-10-20T01:06:05;11.00;93.80
3678;DHT22;1855;50.934;6.958;2022-10-20T01:08:32;11.00;93.90
3678;DHT22;1855;50.934;6.958;2022-10-20T01:11:09;11.00;93.90
3678;DHT22;1855;50.934;6.958;2022-10-20T01:13:47;11.00;93.80
3678;DHT22;1855;50.934;6.958;2022-10-20T01:16:22;11.00;93.90
3678;DHT22;1855;50.934;6.958;2022-10-20T01:18:59;11.00;94.00
3678;DHT22;1855;50.934;6.958;2022-10-20T01:21:48;10.90;94.10
3678;DHT22;1855;50.934;6.958;2022-10-20T01:24:32;10.90;94.20
3678;DHT22;1855;50.934;6.958;2022-10-20T01:27:29;10.90;94.20
3678;DHT22;1855;50.934;6.958;2022-10-20T01:30:03;10.90;94.20
3678;DHT22;1855;50.934;6.958;2022-10-20T01:32:40;10.90;94.20
3678;DHT22;1855;50.934;6.958;2022-10-20T01:35:12;10.90;94.20
3678;DHT22;1855;50.934;6.958;2022-10-20T01:37:43;10.90;94.10
3678;DHT22;1855;50.934;6.958;2022-10-20T01:40:19;11.00;94.00
3678;DHT22;1855;50.934;6.958;2022-10-20T01:42:50;10.90;94.00
3678;DHT22;1855;50.934;6.958;2022-10-20T01:45:20;11.00;93.90
3678;DHT22;1855;50.934;6.958;2022-10-20T01:47:50;11.00;93.80
3678;DHT22;1855;50.934;6.958;2022-10-20T01:50:18;11.00;93.60
3678;DHT22;1855;50.934;6.958;2022-10-20T01:52:45;11.10;93.50
3678;DHT22;1855;50.934;6.958;2022-10-20T01:55:14;11.10;93.50
3678;DHT22;1855;50.934;6.958;2022-10-20T01:57:51;11.00;93.60
3678;DHT22;1855;50.934;6.958;2022-10-20T02:00:24;11.00;93.60
3678;DHT22;1855;50.934;6.958;2022-10-20T02:03:02;11.00;93.70
3678;DHT22;1855;50.934;6.958;2022-10-20T02:05:45;11.00;93.90
3678;DHT22;1855;50.934;6.958;2022-10-20T02:08:20;11.00;93.50
3678;DHT22;1855;50.934;6.958;2022-10-20T02:10:50;11.00;93.30
3678;DHT22;1855;50.934;6.958;2022-10-20T02:13:20;11.00;93.40
3678;DHT22;1855;50.934;6.958;2022-10-20T02:15:51;11.00;93.30
3678;DHT22;1855;50.934;6.958;2022-10-20T02:18:22;11.10;93.30
3678;DHT22;1855;50.934;6.958;2022-10-20T02:20:53;11.10;93.10
3678;DHT22;1855;50.934;6.958;2022-10-20T02:23:20;11.10;92.70
3678;DHT22;1855;50.934;6.958;2022-10-20T02:25:49;11.10;92.50
3678;DHT22;1855;50.934;6.958;2022-10-20T02:28:19;11.20;92.50
3678;DHT22;1855;50.934;6.958;2022-10-20T02:30:47;11.20;92.40
3678;DHT22;1855;50.934;6.958;2022-10-20T02:33:15;11.30;92.10
3678;DHT22;1855;50.934;6.958;2022-10-20T02:35:48;11.30;91.90
3678;DHT22;1855;50.934;6.958;2022-10-20T02:38:16;11.30;91.80
3678;DHT22;1855;50.934;6.958;2022-10-20T02:40:43;11.30;91.80
3678;DHT22;1855;50.934;6.958;2022-10-20T02:43:10;11.30;91.70
3678;DHT22;1855;50.934;6.958;2022-10-20T02:45:38;11.30;91.60
3678;DHT22;1855;50.934;6.958;2022-10-20T02:48:05;11.30;91.50
3678;DHT22;1855;50.934;6.958;2022-10-20T02:50:33;11.30;91.40
3678;DHT22;1855;50.934;6.958;2022-10-20T02:53:00;11.30;91.30
3678;DHT22;1855;50.934;6.958;2022-10-20T02:55:27;11.40;91.40
3678;DHT22;1855;50.934;6.958;2022-10-20T02:57:53;11.40;91.20
3678;DHT22;1855;50.934;6.958;2022-10-20T03:00:21;11.40;91.20
3678;DHT22;1855;50.934;6.958;2022-10-20T03:02:49;11.40;91.30
3678;DHT22;1855;50.934;6.958;2022-10-20T03:05:16;11.40;91.30
3678;DHT22;1855;50.934;6.958;2022-10-20T03:07:43;11.40;91.20
3678;DHT22;1855;50.934;6.958;2022-10-20T03:10:10;11.40;91.20
3678;DHT22;1855;50.934;6.958;2022-10-20T03:12:37;11.40;91.00
3678;DHT22;1855;50.934;6.958;2022-10-20T03:15:04;11.40;91.10
3678;DHT22;1855;50.934;6.958;2022-10-20T03:17:31;11.40;91.20
3678;DHT22;1855;50.934;6.958;2022-10-20T03:19:59;11.40;91.20
3678;DHT22;1855;50.934;6.958;2022-10-20T03:22:27;11.40;91.10
3678;DHT22;1855;50.934;6.958;2022-10-20T03:24:53;11.40;91.20
3678;DHT22;1855;50.934;6.958;2022-10-20T03:27:20;11.30;91.20
3678;DHT22;1855;50.934;6.958;2022-10-20T03:29:47;11.30;91.10
3678;DHT22;1855;50.934;6.958;2022-10-20T03:32:14;11.30;91.10
3678;DHT22;1855;50.934;6.958;2022-10-20T03:34:40;11.30;91.10
3678;DHT22;1855;50.934;6.958;2022-10-20T03:37:08;11.40;90.90
3678;DHT22;1855;50.934;6.958;2022-10-20T03:39:35;11.40;90.70
3678;DHT22;1855;50.934;6.958;2022-10-20T03:42:02;11.40;90.30
3678;DHT22;1855;50.934;6.958;2022-10-20T03:44:29;11.50;90.30
3678;DHT22;1855;50.934;6.958;2022-10-20T03:46:55;11.50;90.10
3678;DHT22;1855;50.934;6.958;2022-10-20T03:49:24;11.50;90.00
3678;DHT22;1855;50.934;6.958;2022-10-20T03:51:51;11.50;90.10
3678;DHT22;1855;50.934;6.958;2022-10-20T03:54:19;11.50;89.70
3678;DHT22;1855;50.934;6.958;2022-10-20T03:56:46;11.50;89.80
3678;DHT22;1855;50.934;6.958;2022-10-20T03:59:13;11.50;90.10
3678;DHT22;1855;50.934;6.958;2022-10-20T04:01:42;11.50;90.00
3678;DHT22;1855;50.934;6.958;2022-10-20T04:04:10;11.50;90.00
3678;DHT22;1855;50.934;6.958;2022-10-20T04:06:37;11.50;89.70
3678;DHT22;1855;50.934;6.958;2022-10-20T04:09:04;11.50;89.70
3678;DHT22;1855;50.934;6.958;2022-10-20T04:11:32;11.50;89.00
3678;DHT22;1855;50.934;6.958;2022-10-20T04:14:00;11.50;88.80
3678;DHT22;1855;50.934;6.958;2022-10-20T04:16:27;11.50;88.90
3678;DHT22;1855;50.934;6.958;2022-10-20T04:18:54;11.50;90.00
3678;DHT22;1855;50.934;6.958;2022-10-20T04:21:21;11.50;88.80
3678;DHT22;1855;50.934;6.958;2022-10-20T04:23:48;11.50;88.50
3678;DHT22;1855;50.934;6.958;2022-10-20T04:26:15;11.50;88.30
3678;DHT22;1855;50.934;6.958;2022-10-20T04:28:43;11.50;88.30
3678;DHT22;1855;50.934;6.958;2022-10-20T04:31:10;11.60;87.80
3678;DHT22;1855;50.934;6.958;2022-10-20T04:33:36;11.60;87.70
3678;DHT22;1855;50.934;6.958;2022-10-20T04:36:05;11.60;87.90
3678;DHT22;1855;50.934;6.958;2022-10-20T04:38:33;11.60;88.40
3678;DHT22;1855;50.934;6.958;2022-10-20T04:41:02;11.60;87.40
3678;DHT22;1855;50.934;6.958;2022-10-20T04:43:30;11.60;87.50
3678;DHT22;1855;50.934;6.958;2022-10-20T04:46:00;11.60;87.50
3678;DHT22;1855;50.934;6.958;2022-10-20T04:48:27;11.60;87.30
3678;DHT22;1855;50.934;6.958;2022-10-20T04:51:02;11.60;86.80
3678;DHT22;1855;50.934;6.958;2022-10-20T04:53:29;11.70;87.00
3678;DHT22;1855;50.934;6.958;2022-10-20T04:55:57;11.70;86.40
3678;DHT22;1855;50.934;6.958;2022-10-20T04:58:24;11.70;86.40
3678;DHT22;1855;50.934;6.958;2022-10-20T05:00:51;11.70;86.20
3678;DHT22;1855;50.934;6.958;2022-10-20T05:03:20;11.70;86.40
3678;DHT22;1855;50.934;6.958;2022-10-20T05:05:47;11.70;86.60
3678;DHT22;1855;50.934;6.958;2022-10-20T05:08:14;11.70;86.30
3678;DHT22;1855;50.934;6.958;2022-10-20T05:10:40;11.70;86.60
3678;DHT22;1855;50.934;6.958;2022-10-20T05:13:08;11.70;86.70
3678;DHT22;1855;50.934;6.958;2022-10-20T05:15:34;11.70;86.70
3678;DHT22;1855;50.934;6.958;2022-10-20T05:18:01;11.70;86.80
3678;DHT22;1855;50.934;6.958;2022-10-20T05:20:29;11.70;86.60
3678;DHT22;1855;50.934;6.958;2022-10-20T05:22:56;11.60;86.70
3678;DHT22;1855;50.934;6.958;2022-10-20T05:25:23;11.60;87.10
3678;DHT22;1855;50.934;6.958;2022-10-20T05:27:49;11.60;87.00
3678;DHT22;1855;50.934;6.958;2022-10-20T05:30:16;11.60;86.60
3678;DHT22;1855;50.934;6.958;2022-10-20T05:32:44;11.60;86.70
3678;DHT22;1855;50.934;6.958;2022-10-20T05:35:11;11.60;86.80
3678;DHT22;1855;50.934;6.958;2022-10-20T05:37:39;11.60;86.50
3678;DHT22;1855;50.934;6.958;2022-10-20T05:40:08;11.60;86.70
3678;DHT22;1855;50.934;6.958;2022-10-20T05:42:35;11.60;87.80
3678;DHT22;1855;50.934;6.958;2022-10-20T05:45:02;11.60;86.90
3678;DHT22;1855;50.934;6.958;2022-10-20T05:47:29;11.60;87.20
3678;DHT22;1855;50.934;6.958;2022-10-20T05:49:55;11.60;87.00
3678;DHT22;1855;50.934;6.958;2022-10-20T05:52:22;11.60;87.10
3678;DHT22;1855;50.934;6.958;2022-10-20T05:54:50;11.60;87.00
3678;DHT22;1855;50.934;6.958;2022-10-20T05:57:17;11.60;86.90
3678;DHT22;1855;50.934;6.958;2022-10-20T05:59:44;11.60;87.10
3678;DHT22;1855;50.934;6.958;2022-10-20T06:02:12;11.60;88.10
3678;DHT22;1855;50.934;6.958;2022-10-20T06:04:39;11.60;87.50
3678;DHT22;1855;50.934;6.958;2022-10-20T06:07:05;11.60;87.10
3678;DHT22;1855;50.934;6.958;2022-10-20T06:09:34;11.60;87.40
3678;DHT22;1855;50.934;6.958;2022-10-20T06:12:04;11.60;87.20
3678;DHT22;1855;50.934;6.958;2022-10-20T06:14:32;11.60;87.20
3678;DHT22;1855;50.934;6.958;2022-10-20T06:16:59;11.60;87.20
3678;DHT22;1855;50.934;6.958;2022-10-20T06:19:26;11.60;87.00
3678;DHT22;1855;50.934;6.958;2022-10-20T06:21:53;11.60;87.30
3678;DHT22;1855;50.934;6.958;2022-10-20T06:24:19;11.60;87.30
3678;DHT22;1855;50.934;6.958;2022-10-20T06:26:46;11.60;87.00
3678;DHT22;1855;50.934;6.958;2022-10-20T06:29:16;11.60;87.30
3678;DHT22;1855;50.934;6.958;2022-10-20T06:31:44;11.60;87.10
3678;DHT22;1855;50.934;6.958;2022-10-20T06:34:13;11.60;87.30
3678;DHT22;1855;50.934;6.958;2022-10-20T06:36:41;11.60;87.50
3678;DHT22;1855;50.934;6.958;2022-10-20T06:39:12;11.60;87.70
3678;DHT22;1855;50.934;6.958;2022-10-20T06:41:39;11.60;87.50
3678;DHT22;1855;50.934;6.958;2022-10-20T06:44:05;11.60;87.60
3678;DHT22;1855;50.934;6.958;2022-10-20T06:46:35;11.60;87.70
3678;DHT22;1855;50.934;6.958;2022-10-20T06:49:03;11.70;87.60
3678;DHT22;1855;50.934;6.958;2022-10-20T06:51:30;11.70;87.80
3678;DHT22;1855;50.934;6.958;2022-10-20T06:53:58;11.70;88.10
3678;DHT22;1855;50.934;6.958;2022-10-20T06:56:26;11.70;87.80
3678;DHT22;1855;50.934;6.958;2022-10-20T06:58:55;11.70;87.90
3678;DHT22;1855;50.934;6.958;2022-10-20T07:01:23;11.70;88.00
3678;DHT22;1855;50.934;6.958;2022-10-20T07:03:53;11.70;87.90
3678;DHT22;1855;50.934;6.958;2022-10-20T07:06:22;11.70;87.70
3678;DHT22;1855;50.934;6.958;2022-10-20T07:08:49;11.80;87.90
3678;DHT22;1855;50.934;6.958;2022-10-20T07:11:19;11.80;87.90
3678;DHT22;1855;50.934;6.958;2022-10-20T07:13:47;11.80;87.90
3678;DHT22;1855;50.934;6.958;2022-10-20T07:16:15;11.80;87.80
3678;DHT22;1855;50.934;6.958;2022-10-20T07:18:42;11.80;87.90
3678;DHT22;1855;50.934;6.958;2022-10-20T07:21:12;11.80;87.90
3678;DHT22;1855;50.934;6.958;2022-10-20T07:23:40;11.90;87.90
3678;DHT22;1855;50.934;6.958;2022-10-20T07:26:10;11.90;87.70
3678;DHT22;1855;50.934;6.958;2022-10-20T07:28:39;11.90;87.60
3678;DHT22;1855;50.934;6.958;2022-10-20T07:31:09;11.90;88.00
3678;DHT22;1855;50.934;6.958;2022-10-20T07:33:36;11.90;87.80
3678;DHT22;1855;50.934;6.958;2022-10-20T07:36:12;11.90;88.00
3678;DHT22;1855;50.934;6.958;2022-10-20T07:38:42;11.90;88.00
3678;DHT22;1855;50.934;6.958;2022-10-20T07:41:09;12.00;87.60
3678;DHT22;1855;50.934;6.958;2022-10-20T07:43:36;12.00;87.90
3678;DHT22;1855;50.934;6.958;2022-10-20T07:46:04;12.10;87.60
3678;DHT22;1855;50.934;6.958;2022-10-20T07:48:31;12.10;87.60
3678;DHT22;1855;50.934;6.958;2022-10-20T07:51:15;12.10;87.40
3678;DHT22;1855;50.934;6.958;2022-10-20T07:53:43;12.10;87.00
3678;DHT22;1855;50.934;6.958;2022-10-20T07:56:10;12.20;86.90
3678;DHT22;1855;50.934;6.958;2022-10-20T07:58:37;12.20;86.60
3678;DHT22;1855;50.934;6.958;2022-10-20T08:01:04;12.30;86.30
3678;DHT22;1855;50.934;6.958;2022-10-20T08:03:31;12.30;85.80
3678;DHT22;1855;50.934;6.958;2022-10-20T08:05:58;12.30;85.90
3678;DHT22;1855;50.934;6.958;2022-10-20T08:08:26;12.30;85.80
3678;DHT22;1855;50.934;6.958;2022-10-20T08:10:53;12.30;85.50
3678;DHT22;1855;50.934;6.958;2022-10-20T08:13:20;12.30;86.00
3678;DHT22;1855;50.934;6.958;2022-10-20T08:15:47;12.40;85.70
3678;DHT22;1855;50.934;6.958;2022-10-20T08:18:14;12.40;85.30
3678;DHT22;1855;50.934;6.958;2022-10-20T08:20:40;12.40;85.50
3678;DHT22;1855;50.934;6.958;2022-10-20T08:23:07;12.40;85.30
3678;DHT22;1855;50.934;6.958;2022-10-20T08:25:35;12.40;85.40
3678;DHT22;1855;50.934;6.958;2022-10-20T08:28:02;12.40;86.00
3678;DHT22;1855;50.934;6.958;2022-10-20T08:30:29;12.40;85.10
3678;DHT22;1855;50.934;6.958;2022-10-20T08:32:56;12.50;85.10
3678;DHT22;1855;50.934;6.958;2022-10-20T08:35:23;12.50;84.80
3678;DHT22;1855;50.934;6.958;2022-10-20T08:37:50;12.50;84.70
3678;DHT22;1855;50.934;6.958;2022-10-20T08:40:20;12.50;84.60
3678;DHT22;1855;50.934;6.958;2022-10-20T08:42:49;12.50;84.60
3678;DHT22;1855;50.934;6.958;2022-10-20T08:45:18;12.50;85.10
3678;DHT22;1855;50.934;6.958;2022-10-20T08:47:46;12.50;84.50
3678;DHT22;1855;50.934;6.958;2022-10-20T08:50:15;12.60;84.30
3678;DHT22;1855;50.934;6.958;2022-10-20T08:52:43;12.50;84.90
3678;DHT22;1855;50.934;6.958;2022-10-20T08:55:18;12.50;84.70
3678;DHT22;1855;50.934;6.958;2022-10-20T08:57:48;12.50;85.10
3678;DHT22;1855;50.934;6.958;2022-10-20T09:00:18;12.60;84.60
3678;DHT22;1855;50.934;6.958;2022-10-20T09:02:45;12.50;85.00
3678;DHT22;1855;50.934;6.958;2022-10-20T09:05:13;12.50;85.20
3678;DHT22;1855;50.934;6.958;2022-10-20T09:07:40;12.40;85.60
3678;DHT22;1855;50.934;6.958;2022-10-20T09:10:24;12.50;85.80
3678;DHT22;1855;50.934;6.958;2022-10-20T09:12:53;12.50;85.80
3678;DHT22;1855;50.934;6.958;2022-10-20T09:15:20;12.50;85.70
3678;DHT22;1855;50.934;6.958;2022-10-20T09:17:50;12.60;86.60
3678;DHT22;1855;50.934;6.958;2022-10-20T09:20:22;12.60;85.10
3678;DHT22;1855;50.934;6.958;2022-10-20T09:22:50;12.70;84.80
3678;DHT22;1855;50.934;6.958;2022-10-20T09:25:22;12.60;85.50
3678;DHT22;1855;50.934;6.958;2022-10-20T09:27:50;12.70;86.20
3678;DHT22;1855;50.934;6.958;2022-10-20T09:30:20;12.70;85.60
3678;DHT22;1855;50.934;6.958;2022-10-20T09:32:48;12.70;85.60
3678;DHT22;1855;50.934;6.958;2022-10-20T09:35:19;12.70;85.70
3678;DHT22;1855;50.934;6.958;2022-10-20T09:37:58;12.70;85.70
3678;DHT22;1855;50.934;6.958;2022-10-20T09:40:26;12.70;86.50
3678;DHT22;1855;50.934;6.958;2022-10-20T09:42:54;12.70;86.90
3678;DHT22;1855;50.934;6.958;2022-10-20T09:45:25;12.80;87.10
3678;DHT22;1855;50.934;6.958;2022-10-20T09:47:57;12.80;87.90
3678;DHT22;1855;50.934;6.958;2022-10-20T09:50:28;12.90;87.10
3678;DHT22;1855;50.934;6.958;2022-10-20T09:52:57;12.90;86.60
3678;DHT22;1855;50.934;6.958;2022-10-20T09:55:27;12.90;87.20
3678;DHT22;1855;50.934;6.958;2022-10-20T09:57:55;13.00;86.00
3678;DHT22;1855;50.934;6.958;2022-10-20T10:00:26;12.90;86.80
3678;DHT22;1855;50.934;6.958;2022-10-20T10:03:08;12.90;87.60
3678;DHT22;1855;50.934;6.958;2022-10-20T10:05:35;12.80;89.10
3678;DHT22;1855;50.934;6.958;2022-10-20T10:08:02;12.80;90.60
3678;DHT22;1855;50.934;6.958;2022-10-20T10:10:30;12.70;91.60
3678;DHT22;1855;50.934;6.958;2022-10-20T10:12:58;12.60;91.80
3678;DHT22;1855;50.934;6.958;2022-10-20T10:15:30;12.60;92.10
3678;DHT22;1855;50.934;6.958;2022-10-20T10:17:58;12.60;91.90
3678;DHT22;1855;50.934;6.958;2022-10-20T10:20:31;12.60;91.90
3678;DHT22;1855;50.934;6.958;2022-10-20T10:23:20;12.60;92.00
3678;DHT22;1855;50.934;6.958;2022-10-20T10:25:47;12.60;91.80
3678;DHT22;1855;50.934;6.958;2022-10-20T10:28:28;12.50;92.00
3678;DHT22;1855;50.934;6.958;2022-10-20T10:31:19;12.60;92.10
3678;DHT22;1855;50.934;6.958;2022-10-20T10:33:48;12.60;92.70
3678;DHT22;1855;50.934;6.958;2022-10-20T10:36:31;12.50;92.60
3678;DHT22;1855;50.934;6.958;2022-10-20T10:38:59;12.50;93.20
3678;DHT22;1855;50.934;6.958;2022-10-20T10:41:41;12.50;93.50
3678;DHT22;1855;50.934;6.958;2022-10-20T10:44:18;12.50;93.90
3678;DHT22;1855;50.934;6.958;2022-10-20T10:46:57;12.40;94.30
3678;DHT22;1855;50.934;6.958;2022-10-20T10:49:36;12.50;94.80
3678;DHT22;1855;50.934;6.958;2022-10-20T10:52:19;12.40;95.10
3678;DHT22;1855;50.934;6.958;2022-10-20T10:54:56;12.40;94.80
3678;DHT22;1855;50.934;6.958;2022-10-20T10:57:29;12.40;95.10
3678;DHT22;1855;50.934;6.958;2022-10-20T10:59:59;12.40;95.30
3678;DHT22;1855;50.934;6.958;2022-10-20T11:02:59;12.40;95.70
3678;DHT22;1855;50.934;6.958;2022-10-20T11:08:40;12.30;95.70
3678;DHT22;1855;50.934;6.958;2022-10-20T11:11:20;12.30;95.90
3678;DHT22;1855;50.934;6.958;2022-10-20T11:14:08;12.30;95.90
3678;DHT22;1855;50.934;6.958;2022-10-20T11:16:40;12.30;96.40
3678;DHT22;1855;50.934;6.958;2022-10-20T11:19:22;12.30;96.60
3678;DHT22;1855;50.934;6.958;2022-10-20T11:21:59;12.20;96.90
3678;DHT22;1855;50.934;6.958;2022-10-20T11:24:39;12.20;97.10
3678;DHT22;1855;50.934;6.958;2022-10-20T11:27:10;12.20;97.30
3678;DHT22;1855;50.934;6.958;2022-10-20T11:29:42;12.20;97.60
3678;DHT22;1855;50.934;6.958;2022-10-20T11:32:17;12.20;97.50
3678;DHT22;1855;50.934;6.958;2022-10-20T11:34:58;12.10;97.70
3678;DHT22;1855;50.934;6.958;2022-10-20T11:37:28;12.10;98.10
3678;DHT22;1855;50.934;6.958;2022-10-20T11:40:02;12.10;98.30
3678;DHT22;1855;50.934;6.958;2022-10-20T11:42:34;12.00;98.30
3678;DHT22;1855;50.934;6.958;2022-10-20T11:45:10;12.00;98.50
3678;DHT22;1855;50.934;6.958;2022-10-20T11:47:42;12.00;98.80
3678;DHT22;1855;50.934;6.958;2022-10-20T11:50:17;12.00;99.00
3678;DHT22;1855;50.934;6.958;2022-10-20T11:52:59;12.00;99.30
3678;DHT22;1855;50.934;6.958;2022-10-20T11:55:47;12.00;99.50
3678;DHT22;1855;50.934;6.958;2022-10-20T11:58:31;12.00;99.60
3678;DHT22;1855;50.934;6.958;2022-10-20T12:01:17;12.00;99.60
3678;DHT22;1855;50.934;6.958;2022-10-20T12:04:17;11.90;99.70
3678;DHT22;1855;50.934;6.958;2022-10-20T12:09:58;12.00;99.90
3678;DHT22;1855;50.934;6.958;2022-10-20T12:12:32;12.00;99.90
3678;DHT22;1855;50.934;6.958;2022-10-20T12:15:02;12.00;99.90
3678;DHT22;1855;50.934;6.958;2022-10-20T12:17:33;12.00;99.90
3678;DHT22;1855;50.934;6.958;2022-10-20T12:26:36;12.00;99.90
3678;DHT22;1855;50.934;6.958;2022-10-20T12:32:51;12.10;99.90
3678;DHT22;1855;50.934;6.958;2022-10-20T12:38:30;12.10;99.90
3678;DHT22;1855;50.934;6.958;2022-10-20T12:40:59;12.10;99.90
3678;DHT22;1855;50.934;6.958;2022-10-20T12:43:33;12.10;99.90
3678;DHT22;1855;50.934;6.958;2022-10-20T12:46:08;12.10;99.90
3678;DHT22;1855;50.934;6.958;2022-10-20T12:48:46;12.20;99.90
3678;DHT22;1855;50.934;6.958;2022-10-20T12:51:20;12.20;99.90
3678;DHT22;1855;50.934;6.958;2022-10-20T12:53:54;12.30;99.90
3678;DHT22;1855;50.934;6.958;2022-10-20T12:56:22;12.30;99.90
3678;DHT22;1855;50.934;6.958;2022-10-20T13:05:26;12.40;99.90
3678;DHT22;1855;50.934;6.958;2022-10-20T13:08:24;12.50;99.90
3678;DHT22;1855;50.934;6.958;2022-10-20T13:10:53;12.50;99.90
3678;DHT22;1855;50.934;6.958;2022-10-20T13:13:56;12.60;99.90
3678;DHT22;1855;50.934;6.958;2022-10-20T13:16:28;12.60;99.90
3678;DHT22;1855;50.934;6.958;2022-10-20T13:18:56;12.60;99.90
3678;DHT22;1855;50.934;6.958;2022-10-20T13:21:30;12.70;99.90
3678;DHT22;1855;50.934;6.958;2022-10-20T13:24:02;12.70;99.90
3678;DHT22;1855;50.934;6.958;2022-10-20T13:26:35;12.70;99.90
3678;DHT22;1855;50.934;6.958;2022-10-20T13:29:10;12.80;99.90
3678;DHT22;1855;50.934;6.958;2022-10-20T13:31:41;12.80;99.80
3678;DHT22;1855;50.934;6.958;2022-10-20T13:34:15;12.80;99.90
3678;DHT22;1855;50.934;6.958;2022-10-20T13:36:56;12.80;99.90
3678;DHT22;1855;50.934;6.958;2022-10-20T13:39:32;12.80;99.90
3678;DHT22;1855;50.934;6.958;2022-10-20T13:42:16;12.80;99.80
3678;DHT22;1855;50.934;6.958;2022-10-20T13:44:53;12.90;99.80
3678;DHT22;1855;50.934;6.958;2022-10-20T13:47:37;12.90;99.80
3678;DHT22;1855;50.934;6.958;2022-10-20T13:50:09;13.00;99.70
3678;DHT22;1855;50.934;6.958;2022-10-20T13:52:40;13.00;99.80
3678;DHT22;1855;50.934;6.958;2022-10-20T13:55:14;13.10;99.70
3678;DHT22;1855;50.934;6.958;2022-10-20T13:57:52;13.10;99.30
3678;DHT22;1855;50.934;6.958;2022-10-20T14:00:23;13.20;99.20
3678;DHT22;1855;50.934;6.958;2022-10-20T14:02:53;13.30;98.70
3678;DHT22;1855;50.934;6.958;2022-10-20T14:05:21;13.40;98.50
3678;DHT22;1855;50.934;6.958;2022-10-20T14:07:48;13.50;98.20
3678;DHT22;1855;50.934;6.958;2022-10-20T14:10:23;13.60;97.20
3678;DHT22;1855;50.934;6.958;2022-10-20T14:12:52;13.70;97.20
3678;DHT22;1855;50.934;6.958;2022-10-20T14:15:27;13.80;96.90
3678;DHT22;1855;50.934;6.958;2022-10-20T14:17:57;13.80;96.80
3678;DHT22;1855;50.934;6.958;2022-10-20T14:20:24;13.90;96.30
3678;DHT22;1855;50.934;6.958;2022-10-20T14:22:51;14.00;95.80
3678;DHT22;1855;50.934;6.958;2022-10-20T14:25:19;14.00;95.90
3678;DHT22;1855;50.934;6.958;2022-10-20T14:27:46;13.90;96.00
3678;DHT22;1855;50.934;6.958;2022-10-20T14:30:17;13.90;96.20
3678;DHT22;1855;50.934;6.958;2022-10-20T14:32:46;14.00;96.20
3678;DHT22;1855;50.934;6.958;2022-10-20T14:35:18;14.00;96.40
3678;DHT22;1855;50.934;6.958;2022-10-20T14:37:51;14.10;96.70
3678;DHT22;1855;50.934;6.958;2022-10-20T14:40:22;14.30;96.10
3678;DHT22;1855;50.934;6.958;2022-10-20T14:42:50;14.60;95.30
3678;DHT22;1855;50.934;6.958;2022-10-20T14:45:21;14.80;94.40
3678;DHT22;1855;50.934;6.958;2022-10-20T14:47:49;14.90;93.50
3678;DHT22;1855;50.934;6.958;2022-10-20T14:50:22;14.70;93.40
3678;DHT22;1855;50.934;6.958;2022-10-20T14:52:49;14.60;93.70
3678;DHT22;1855;50.934;6.958;2022-10-20T14:55:30;14.40;94.00
3678;DHT22;1855;50.934;6.958;2022-10-20T14:57:57;14.20;94.60
3678;DHT22;1855;50.934;6.958;2022-10-20T15:00:31;14.10;95.30
3678;DHT22;1855;50.934;6.958;2022-10-20T15:03:01;14.00;95.30
3678;DHT22;1855;50.934;6.958;2022-10-20T15:05:36;13.90;95.50
3678;DHT22;1855;50.934;6.958;2022-10-20T15:08:17;13.80;95.80
3678;DHT22;1855;50.934;6.958;2022-10-20T15:10:46;13.80;96.30
3678;DHT22;1855;50.934;6.958;2022-10-20T15:13:20;13.70;96.50
3678;DHT22;1855;50.934;6.958;2022-10-20T15:15:49;13.70;96.60
3678;DHT22;1855;50.934;6.958;2022-10-20T15:18:17;13.70;96.70
3678;DHT22;1855;50.934;6.958;2022-10-20T15:20:44;13.70;97.00
3678;DHT22;1855;50.934;6.958;2022-10-20T15:23:13;13.80;96.80
3678;DHT22;1855;50.934;6.958;2022-10-20T15:25:45;13.80;96.40
3678;DHT22;1855;50.934;6.958;2022-10-20T15:28:30;13.80;96.80
3678;DHT22;1855;50.934;6.958;2022-10-20T15:31:01;13.90;96.50
3678;DHT22;1855;50.934;6.958;2022-10-20T15:33:28;13.80;96.50
3678;DHT22;1855;50.934;6.958;2022-10-20T15:35:55;13.80;96.50
3678;DHT22;1855;50.934;6.958;2022-10-20T15:38:24;13.80;96.60
3678;DHT22;1855;50.934;6.958;2022-10-20T15:40:51;13.80;96.50
3678;DHT22;1855;50.934;6.958;2022-10-20T15:43:18;13.80;96.60
3678;DHT22;1855;50.934;6.958;2022-10-20T15:45:46;13.80;96.60
3678;DHT22;1855;50.934;6.958;2022-10-20T15:48:15;13.70;96.80
3678;DHT22;1855;50.934;6.958;2022-10-20T15:50:43;13.70;96.90
3678;DHT22;1855;50.934;6.958;2022-10-20T15:53:10;13.70;96.90
3678;DHT22;1855;50.934;6.958;2022-10-20T15:55:39;13.70;97.00
3678;DHT22;1855;50.934;6.958;2022-10-20T15:58:06;13.70;96.90
3678;DHT22;1855;50.934;6.958;2022-10-20T16:00:33;13.60;96.90
3678;DHT22;1855;50.934;6.958;2022-10-20T16:03:00;13.60;97.10
3678;DHT22;1855;50.934;6.958;2022-10-20T16:05:28;13.60;97.20
3678;DHT22;1855;50.934;6.958;2022-10-20T16:07:55;13.50;97.10
3678;DHT22;1855;50.934;6.958;2022-10-20T16:10:23;13.50;97.10
3678;DHT22;1855;50.934;6.958;2022-10-20T16:12:52;13.50;97.30
3678;DHT22;1855;50.934;6.958;2022-10-20T16:15:19;13.40;97.30
3678;DHT22;1855;50.934;6.958;2022-10-20T16:17:46;13.40;97.50
3678;DHT22;1855;50.934;6.958;2022-10-20T16:20:13;13.40;97.30
3678;DHT22;1855;50.934;6.958;2022-10-20T16:22:41;13.40;97.50
3678;DHT22;1855;50.934;6.958;2022-10-20T16:25:09;13.40;97.50
3678;DHT22;1855;50.934;6.958;2022-10-20T16:27:36;13.40;97.60
3678;DHT22;1855;50.934;6.958;2022-10-20T16:30:04;13.30;97.60
3678;DHT22;1855;50.934;6.958;2022-10-20T16:32:31;13.30;97.50
3678;DHT22;1855;50.934;6.958;2022-10-20T16:34:58;13.30;97.70
3678;DHT22;1855;50.934;6.958;2022-10-20T16:37:25;13.20;97.90
3678;DHT22;1855;50.934;6.958;2022-10-20T16:39:53;13.20;98.00
3678;DHT22;1855;50.934;6.958;2022-10-20T16:42:20;13.20;97.90
3678;DHT22;1855;50.934;6.958;2022-10-20T16:44:47;13.20;98.00
3678;DHT22;1855;50.934;6.958;2022-10-20T16:47:13;13.20;98.00
3678;DHT22;1855;50.934;6.958;2022-10-20T16:49:40;13.20;98.00